sensor_id;sensor_type;location;lat;lon;timestamp;pressure;altitude;pressure_sealevel;temperature;humidity
77325;BME280;66387;53.440;10.390;2023-12-20T00:01:31;100289.88;;;5.59;100.00
77325;BME280;66387;53.440;10.390;2023-12-20T00:03:56;100288.19;;;5.54;100.00
77325;BME280;66387;53.440;10.390;2023-12-20T00:06:21;100286.44;;;5.56;100.00
77325;BME280;66387;53.440;10.390;2023-12-20T00:08:47;100287.31;;;5.55;100.00
77325;BME280;66387;53.440;10.390;2023-12-20T00:11:12;100284.72;;;5.50;100.00
77325;BME280;66387;53.440;10.390;2023-12-20T00:13:38;100284.72;;;5.46;100.00
77325;BME280;66387;53.440;10.390;2023-12-20T00:16:03;100279.53;;;5.39;100.00
77325;BME280;66387;53.440;10.390;2023-12-20T00:18:28;100291.56;;;5.31;100.00
77325;BME280;66387;53.440;10.390;2023-12-20T00:20:54;100276.94;;;5.29;100.00
77325;BME280;66387;53.440;10.390;2023-12-20T00:23:19;100282.09;;;5.23;100.00
77325;BME280;66387;53.440;10.390;2023-12-20T00:25:44;100275.22;;;5.23;100.00
77325;BME280;66387;53.440;10.390;2023-12-20T00:28:10;100272.66;;;5.23;100.00
77325;BME280;66387;53.440;10.390;2023-12-20T00:30:35;100275.22;;;5.22;100.00
77325;BME280;66387;53.440;10.390;2023-12-20T00:33:01;100277.78;;;5.22;100.00
77325;BME280;66387;53.440;10.390;2023-12-20T00:35:27;100282.06;;;5.18;100.00
77325;BME280;66387;53.440;10.390;2023-12-20T00:37:52;100274.34;;;5.20;100.00
77325;BME280;66387;53.440;10.390;2023-12-20T00:40:18;100278.59;;;5.07;100.00
77325;BME280;66387;53.440;10.390;2023-12-20T00:42:43;100269.13;;;5.00;100.00
77325;BME280;66387;53.440;10.390;2023-12-20T00:45:08;100274.28;;;5.02;100.00
77325;BME280;66387;53.440;10.390;2023-12-20T00:47:34;100260.56;;;5.00;100.00
77325;BME280;66387;53.440;10.390;2023-12-20T00:49:59;100259.72;;;5.01;100.00
77325;BME280;66387;53.440;10.390;2023-12-20T00:52:24;100253.72;;;4.99;100.00
77325;BME280;66387;53.440;10.390;2023-12-20T00:54:50;100264.81;;;4.96;100.00
77325;BME280;66387;53.440;10.390;2023-12-20T00:57:15;100260.56;;;4.95;100.00
77325;BME280;66387;53.440;10.390;2023-12-20T00:59:41;100259.66;;;4.90;100.00
77325;BME280;66387;53.440;10.390;2023-12-20T01:02:06;100265.66;;;4.89;100.00
77325;BME280;66387;53.440;10.390;2023-12-20T01:04:31;100263.09;;;4.92;100.00
77325;BME280;66387;53.440;10.390;2023-12-20T01:06:56;100259.69;;;4.96;100.00
77325;BME280;66387;53.440;10.390;2023-12-20T01:09:22;100260.56;;;4.98;100.00
77325;BME280;66387;53.440;10.390;2023-12-20T01:11:52;100250.28;;;4.98;100.00
77325;BME280;66387;53.440;10.390;2023-12-20T01:14:17;100251.13;;;4.99;100.00
77325;BME280;66387;53.440;10.390;2023-12-20T01:16:43;100244.28;;;5.01;100.00
77325;BME280;66387;53.440;10.390;2023-12-20T01:19:08;100251.13;;;5.03;100.00
77325;BME280;66387;53.440;10.390;2023-12-20T01:21:33;100247.72;;;5.04;100.00
77325;BME280;66387;53.440;10.390;2023-12-20T01:23:58;100248.56;;;5.02;100.00
77325;BME280;66387;53.440;10.390;2023-12-20T01:26:23;100245.13;;;5.04;100.00
77325;BME280;66387;53.440;10.390;2023-12-20T01:28:49;100240.84;;;5.05;100.00
77325;BME280;66387;53.440;10.390;2023-12-20T01:31:14;100236.56;;;5.07;100.00
77325;BME280;66387;53.440;10.390;2023-12-20T01:33:39;100241.72;;;5.08;100.00
77325;BME280;66387;53.440;10.390;2023-12-20T01:36:05;100237.41;;;5.04;100.00
77325;BME280;66387;53.440;10.390;2023-12-20T01:38:30;100239.13;;;5.04;100.00
77325;BME280;66387;53.440;10.390;2023-12-20T01:40:55;100240.84;;;5.05;100.00
77325;BME280;66387;53.440;10.390;2023-12-20T01:43:21;100234.84;;;5.04;100.00
77325;BME280;66387;53.440;10.390;2023-12-20T01:45:47;100233.97;;;4.99;100.00
77325;BME280;66387;53.440;10.390;2023-12-20T01:48:12;100234.84;;;4.98;100.00
77325;BME280;66387;53.440;10.390;2023-12-20T01:50:39;100236.53;;;4.99;100.00
77325;BME280;66387;53.440;10.390;2023-12-20T01:53:07;100229.69;;;4.98;100.00
77325;BME280;66387;53.440;10.390;2023-12-20T01:55:34;100227.13;;;4.98;100.00
77325;BME280;66387;53.440;10.390;2023-12-20T01:58:01;100220.25;;;4.94;100.00
77325;BME280;66387;53.440;10.390;2023-12-20T02:00:27;100227.94;;;4.89;100.00
77325;BME280;66387;53.440;10.390;2023-12-20T02:02:54;100210.78;;;4.88;100.00
77325;BME280;66387;53.440;10.390;2023-12-20T02:05:22;100213.38;;;4.93;100.00
77325;BME280;66387;53.440;10.390;2023-12-20T02:07:48;100213.41;;;4.91;100.00
77325;BME280;66387;53.440;10.390;2023-12-20T02:10:13;100215.09;;;4.94;100.00
77325;BME280;66387;53.440;10.390;2023-12-20T02:12:40;100214.25;;;4.95;100.00
77325;BME280;66387;53.440;10.390;2023-12-20T02:15:05;100203.13;;;4.98;100.00
77325;BME280;66387;53.440;10.390;2023-12-20T02:17:31;100208.25;;;4.99;100.00
77325;BME280;66387;53.440;10.390;2023-12-20T02:19:57;100208.28;;;5.02;100.00
77325;BME280;66387;53.440;10.390;2023-12-20T02:22:22;100207.41;;;4.99;100.00
77325;BME280;66387;53.440;10.390;2023-12-20T02:24:47;100207.41;;;5.00;100.00
77325;BME280;66387;53.440;10.390;2023-12-20T02:27:15;100198.81;;;4.93;100.00
77325;BME280;66387;53.440;10.390;2023-12-20T02:29:42;100197.97;;;4.91;100.00
77325;BME280;66387;53.440;10.390;2023-12-20T02:32:08;100195.38;;;4.96;100.00
77325;BME280;66387;53.440;10.390;2023-12-20T02:34:33;100186.81;;;4.94;100.00
77325;BME280;66387;53.440;10.390;2023-12-20T02:36:58;100187.66;;;4.87;100.00
77325;BME280;66387;53.440;10.390;2023-12-20T02:39:23;100189.38;;;4.89;100.00
77325;BME280;66387;53.440;10.390;2023-12-20T02:41:48;100184.25;;;4.88;100.00
77325;BME280;66387;53.440;10.390;2023-12-20T02:44:14;100178.22;;;4.89;100.00
77325;BME280;66387;53.440;10.390;2023-12-20T02:46:39;100174.78;;;4.87;100.00
77325;BME280;66387;53.440;10.390;2023-12-20T02:49:06;100173.03;;;4.74;100.00
77325;BME280;66387;53.440;10.390;2023-12-20T02:51:31;100177.34;;;4.79;100.00
77325;BME280;66387;53.440;10.390;2023-12-20T02:53:56;100178.19;;;4.77;100.00
77325;BME280;66387;53.440;10.390;2023-12-20T02:56:21;100161.03;;;4.77;100.00
77325;BME280;66387;53.440;10.390;2023-12-20T02:58:48;100167.06;;;4.82;100.00
77325;BME280;66387;53.440;10.390;2023-12-20T03:01:13;100165.34;;;4.83;100.00
77325;BME280;66387;53.440;10.390;2023-12-20T03:03:38;100163.63;;;4.82;100.00
77325;BME280;66387;53.440;10.390;2023-12-20T03:06:04;100167.09;;;4.90;100.00
77325;BME280;66387;53.440;10.390;2023-12-20T03:08:29;100163.66;;;4.88;100.00
77325;BME280;66387;53.440;10.390;2023-12-20T03:10:54;100161.91;;;4.82;100.00
77325;BME280;66387;53.440;10.390;2023-12-20T03:13:19;100153.34;;;4.83;100.00
77325;BME280;66387;53.440;10.390;2023-12-20T03:15:45;100158.50;;;4.80;100.00
77325;BME280;66387;53.440;10.390;2023-12-20T03:18:11;100150.75;;;4.76;100.00
77325;BME280;66387;53.440;10.390;2023-12-20T03:20:36;100151.59;;;4.75;100.00
77325;BME280;66387;53.440;10.390;2023-12-20T03:23:01;100140.44;;;4.65;100.00
77325;BME280;66387;53.440;10.390;2023-12-20T03:25:27;100138.75;;;4.66;100.00
77325;BME280;66387;53.440;10.390;2023-12-20T03:27:52;100133.56;;;4.61;100.00
77325;BME280;66387;53.440;10.390;2023-12-20T03:30:18;100135.28;;;4.61;100.00
77325;BME280;66387;53.440;10.390;2023-12-20T03:32:44;100133.56;;;4.60;100.00
77325;BME280;66387;53.440;10.390;2023-12-20T03:35:09;100130.16;;;4.64;100.00
77325;BME280;66387;53.440;10.390;2023-12-20T03:37:35;100122.44;;;4.67;100.00
77325;BME280;66387;53.440;10.390;2023-12-20T03:40:00;100127.56;;;4.61;100.00
77325;BME280;66387;53.440;10.390;2023-12-20T03:42:26;100125.84;;;4.63;100.00
77325;BME280;66387;53.440;10.390;2023-12-20T03:44:51;100111.31;;;4.62;100.00
77325;BME280;66387;53.440;10.390;2023-12-20T03:47:16;100134.44;;;4.71;100.00
77325;BME280;66387;53.440;10.390;2023-12-20T03:49:41;100123.31;;;4.75;100.00
77325;BME280;66387;53.440;10.390;2023-12-20T03:52:07;100118.16;;;4.66;100.00
77325;BME280;66387;53.440;10.390;2023-12-20T03:54:33;100121.59;;;4.66;100.00
77325;BME280;66387;53.440;10.390;2023-12-20T03:56:58;100109.59;;;4.67;100.00
77325;BME280;66387;53.440;10.390;2023-12-20T03:59:23;100105.31;;;4.66;100.00
77325;BME280;66387;53.440;10.390;2023-12-20T04:01:48;100112.16;;;4.68;100.00
77325;BME280;66387;53.440;10.390;2023-12-20T04:04:14;100110.44;;;4.67;100.00
77325;BME280;66387;53.440;10.390;2023-12-20T04:06:39;100101.03;;;4.66;100.00
77325;BME280;66387;53.440;10.390;2023-12-20T04:09:05;100098.47;;;4.72;100.00
77325;BME280;66387;53.440;10.390;2023-12-20T04:11:30;100083.91;;;4.70;100.00
77325;BME280;66387;53.440;10.390;2023-12-20T04:13:55;100091.63;;;4.73;100.00
77325;BME280;66387;53.440;10.390;2023-12-20T04:16:21;100097.63;;;4.75;100.00
77325;BME280;66387;53.440;10.390;2023-12-20T04:18:46;100091.63;;;4.73;100.00
77325;BME280;66387;53.440;10.390;2023-12-20T04:21:11;100080.47;;;4.71;100.00
77325;BME280;66387;53.440;10.390;2023-12-20T04:23:36;100083.03;;;4.74;100.00
77325;BME280;66387;53.440;10.390;2023-12-20T04:26:02;100079.63;;;4.66;100.00
77325;BME280;66387;53.440;10.390;2023-12-20T04:28:27;100074.44;;;4.64;100.00
77325;BME280;66387;53.440;10.390;2023-12-20T04:30:55;100070.19;;;4.72;100.00
77325;BME280;66387;53.440;10.390;2023-12-20T04:33:20;100070.19;;;4.71;100.00
77325;BME280;66387;53.440;10.390;2023-12-20T04:35:45;100063.34;;;4.76;100.00
77325;BME280;66387;53.440;10.390;2023-12-20T04:38:11;100059.88;;;4.74;100.00
77325;BME280;66387;53.440;10.390;2023-12-20T04:40:36;100061.59;;;4.67;100.00
77325;BME280;66387;53.440;10.390;2023-12-20T04:43:01;100058.19;;;4.70;100.00
77325;BME280;66387;53.440;10.390;2023-12-20T04:45:27;100055.63;;;4.76;100.00
77325;BME280;66387;53.440;10.390;2023-12-20T04:47:52;100054.78;;;4.80;100.00
77325;BME280;66387;53.440;10.390;2023-12-20T04:50:17;100051.34;;;4.84;100.00
77325;BME280;66387;53.440;10.390;2023-12-20T04:52:42;100053.06;;;4.79;100.00
77325;BME280;66387;53.440;10.390;2023-12-20T04:55:08;100045.31;;;4.74;100.00
77325;BME280;66387;53.440;10.390;2023-12-20T04:57:34;100034.19;;;4.78;100.00
77325;BME280;66387;53.440;10.390;2023-12-20T04:59:59;100023.03;;;4.75;100.00
77325;BME280;66387;53.440;10.390;2023-12-20T05:02:25;100032.47;;;4.76;100.00
77325;BME280;66387;53.440;10.390;2023-12-20T05:04:50;100027.31;;;4.77;100.00
77325;BME280;66387;53.440;10.390;2023-12-20T05:07:15;100028.22;;;4.84;100.00
77325;BME280;66387;53.440;10.390;2023-12-20T05:09:41;100014.50;;;4.86;100.00
77325;BME280;66387;53.440;10.390;2023-12-20T05:12:06;100024.78;;;4.88;100.00
77325;BME280;66387;53.440;10.390;2023-12-20T05:14:32;100028.22;;;4.87;100.00
77325;BME280;66387;53.440;10.390;2023-12-20T05:16:57;100028.19;;;4.88;100.00
77325;BME280;66387;53.440;10.390;2023-12-20T05:19:22;100031.63;;;4.90;100.00
77325;BME280;66387;53.440;10.390;2023-12-20T05:21:48;100029.06;;;4.92;100.00
77325;BME280;66387;53.440;10.390;2023-12-20T05:24:13;100023.06;;;4.91;100.00
77325;BME280;66387;53.440;10.390;2023-12-20T05:26:38;100012.78;;;4.94;100.00
77325;BME280;66387;53.440;10.390;2023-12-20T05:29:03;100020.47;;;4.96;100.00
77325;BME280;66387;53.440;10.390;2023-12-20T05:31:29;100016.22;;;4.95;100.00
77325;BME280;66387;53.440;10.390;2023-12-20T05:33:54;100025.63;;;4.99;100.00
77325;BME280;66387;53.440;10.390;2023-12-20T05:36:19;100031.66;;;4.98;100.00
77325;BME280;66387;53.440;10.390;2023-12-20T05:38:45;100025.63;;;4.99;100.00
77325;BME280;66387;53.440;10.390;2023-12-20T05:41:10;100026.50;;;4.98;100.00
77325;BME280;66387;53.440;10.390;2023-12-20T05:43:35;100021.34;;;5.00;100.00
77325;BME280;66387;53.440;10.390;2023-12-20T05:46:00;100015.34;;;5.04;100.00
77325;BME280;66387;53.440;10.390;2023-12-20T05:48:25;100008.50;;;5.01;100.00
77325;BME280;66387;53.440;10.390;2023-12-20T05:50:51;100017.06;;;5.05;100.00
77325;BME280;66387;53.440;10.390;2023-12-20T05:53:16;100015.34;;;5.05;100.00
77325;BME280;66387;53.440;10.390;2023-12-20T05:55:41;100014.50;;;5.09;100.00
77325;BME280;66387;53.440;10.390;2023-12-20T05:58:07;99999.91;;;5.05;100.00
77325;BME280;66387;53.440;10.390;2023-12-20T06:00:32;100004.22;;;5.06;100.00
77325;BME280;66387;53.440;10.390;2023-12-20T06:02:57;100003.34;;;5.06;100.00
77325;BME280;66387;53.440;10.390;2023-12-20T06:05:22;99999.91;;;5.05;100.00
77325;BME280;66387;53.440;10.390;2023-12-20T06:07:48;99995.63;;;5.07;100.00
77325;BME280;66387;53.440;10.390;2023-12-20T06:10:14;99997.34;;;5.05;100.00
77325;BME280;66387;53.440;10.390;2023-12-20T06:12:40;99987.91;;;5.09;100.00
77325;BME280;66387;53.440;10.390;2023-12-20T06:15:05;99984.47;;;5.08;100.00
77325;BME280;66387;53.440;10.390;2023-12-20T06:17:31;99995.63;;;5.09;100.00
77325;BME280;66387;53.440;10.390;2023-12-20T06:19:57;99993.03;;;5.07;100.00
77325;BME280;66387;53.440;10.390;2023-12-20T06:22:22;99988.75;;;5.11;100.00
77325;BME280;66387;53.440;10.390;2023-12-20T06:24:47;99989.59;;;5.14;100.00
77325;BME280;66387;53.440;10.390;2023-12-20T06:27:12;99976.75;;;5.16;100.00
77325;BME280;66387;53.440;10.390;2023-12-20T06:29:38;99983.59;;;5.15;100.00
77325;BME280;66387;53.440;10.390;2023-12-20T06:32:03;99987.91;;;5.16;100.00
77325;BME280;66387;53.440;10.390;2023-12-20T06:34:29;99981.91;;;5.17;100.00
77325;BME280;66387;53.440;10.390;2023-12-20T06:36:54;99977.59;;;5.16;100.00
77325;BME280;66387;53.440;10.390;2023-12-20T06:39:19;99969.88;;;5.15;100.00
77325;BME280;66387;53.440;10.390;2023-12-20T06:41:44;99967.31;;;5.13;100.00
77325;BME280;66387;53.440;10.390;2023-12-20T06:44:10;99972.47;;;5.12;100.00
77325;BME280;66387;53.440;10.390;2023-12-20T06:46:35;99964.72;;;5.10;100.00
77325;BME280;66387;53.440;10.390;2023-12-20T06:49:00;99973.31;;;5.12;100.00
77325;BME280;66387;53.440;10.390;2023-12-20T06:51:25;99954.47;;;5.13;100.00
77325;BME280;66387;53.440;10.390;2023-12-20T06:53:53;99944.16;;;5.15;100.00
77325;BME280;66387;53.440;10.390;2023-12-20T06:56:19;99952.72;;;5.15;100.00
77325;BME280;66387;53.440;10.390;2023-12-20T06:58:44;99951.03;;;5.13;100.00
77325;BME280;66387;53.440;10.390;2023-12-20T07:01:13;99946.75;;;5.16;100.00
77325;BME280;66387;53.440;10.390;2023-12-20T07:03:39;99936.44;;;5.16;100.00
77325;BME280;66387;53.440;10.390;2023-12-20T07:06:07;99945.88;;;5.16;100.00
77325;BME280;66387;53.440;10.390;2023-12-20T07:08:33;99939.00;;;5.15;100.00
77325;BME280;66387;53.440;10.390;2023-12-20T07:10:58;99939.84;;;5.14;100.00
77325;BME280;66387;53.440;10.390;2023-12-20T07:13:23;99936.47;;;5.13;100.00
77325;BME280;66387;53.440;10.390;2023-12-20T07:15:49;99927.00;;;5.12;100.00
77325;BME280;66387;53.440;10.390;2023-12-20T07:18:14;99941.56;;;5.18;100.00
77325;BME280;66387;53.440;10.390;2023-12-20T07:20:39;99931.28;;;5.19;100.00
77325;BME280;66387;53.440;10.390;2023-12-20T07:23:05;99939.00;;;5.19;100.00
77325;BME280;66387;53.440;10.390;2023-12-20T07:25:30;99914.13;;;5.20;100.00
77325;BME280;66387;53.440;10.390;2023-12-20T07:27:57;99929.56;;;5.18;100.00
77325;BME280;66387;53.440;10.390;2023-12-20T07:30:23;99933.88;;;5.16;100.00
77325;BME280;66387;53.440;10.390;2023-12-20T07:32:48;99926.16;;;5.15;100.00
77325;BME280;66387;53.440;10.390;2023-12-20T07:35:13;99932.13;;;5.18;100.00
77325;BME280;66387;53.440;10.390;2023-12-20T07:37:38;99929.56;;;5.21;100.00
77325;BME280;66387;53.440;10.390;2023-12-20T07:40:04;99928.69;;;5.22;100.00
77325;BME280;66387;53.440;10.390;2023-12-20T07:42:30;99933.84;;;5.27;100.00
77325;BME280;66387;53.440;10.390;2023-12-20T07:44:55;99926.97;;;5.30;100.00
77325;BME280;66387;53.440;10.390;2023-12-20T07:47:20;99944.97;;;5.33;100.00
77325;BME280;66387;53.440;10.390;2023-12-20T07:49:50;99925.25;;;5.31;100.00
77325;BME280;66387;53.440;10.390;2023-12-20T07:52:16;99932.13;;;5.30;100.00
77325;BME280;66387;53.440;10.390;2023-12-20T07:54:42;99926.94;;;5.32;100.00
77325;BME280;66387;53.440;10.390;2023-12-20T07:57:07;99926.97;;;5.30;100.00
77325;BME280;66387;53.440;10.390;2023-12-20T07:59:32;99914.97;;;5.35;100.00
77325;BME280;66387;53.440;10.390;2023-12-20T08:01:58;99920.97;;;5.31;100.00
77325;BME280;66387;53.440;10.390;2023-12-20T08:04:23;99917.53;;;5.34;100.00
77325;BME280;66387;53.440;10.390;2023-12-20T08:06:50;99909.78;;;5.37;100.00
77325;BME280;66387;53.440;10.390;2023-12-20T08:09:15;99915.81;;;5.34;100.00
77325;BME280;66387;53.440;10.390;2023-12-20T08:11:47;99913.25;;;5.30;100.00
77325;BME280;66387;53.440;10.390;2023-12-20T08:14:13;99914.09;;;5.33;100.00
77325;BME280;66387;53.440;10.390;2023-12-20T08:16:38;99923.53;;;5.39;100.00
77325;BME280;66387;53.440;10.390;2023-12-20T08:19:04;99908.97;;;5.30;100.00
77325;BME280;66387;53.440;10.390;2023-12-20T08:21:29;99902.97;;;5.31;100.00
77325;BME280;66387;53.440;10.390;2023-12-20T08:23:54;99898.66;;;5.35;100.00
77325;BME280;66387;53.440;10.390;2023-12-20T08:26:20;99893.47;;;5.36;100.00
77325;BME280;66387;53.440;10.390;2023-12-20T08:28:46;99900.34;;;5.37;100.00
77325;BME280;66387;53.440;10.390;2023-12-20T08:31:16;99897.78;;;5.37;100.00
77325;BME280;66387;53.440;10.390;2023-12-20T08:33:44;99892.63;;;5.37;100.00
77325;BME280;66387;53.440;10.390;2023-12-20T08:36:09;99886.63;;;5.41;100.00
77325;BME280;66387;53.440;10.390;2023-12-20T08:38:34;99890.91;;;5.42;100.00
77325;BME280;66387;53.440;10.390;2023-12-20T08:40:59;99874.59;;;5.43;100.00
77325;BME280;66387;53.440;10.390;2023-12-20T08:43:26;99870.31;;;5.46;100.00
77325;BME280;66387;53.440;10.390;2023-12-20T08:45:51;99862.56;;;5.47;100.00
77325;BME280;66387;53.440;10.390;2023-12-20T08:48:16;99873.69;;;5.52;100.00
77325;BME280;66387;53.440;10.390;2023-12-20T08:50:42;99878.84;;;5.54;100.00
77325;BME280;66387;53.440;10.390;2023-12-20T08:53:07;99870.25;;;5.52;100.00
77325;BME280;66387;53.440;10.390;2023-12-20T08:55:32;99851.38;;;5.56;100.00
77325;BME280;66387;53.440;10.390;2023-12-20T08:57:58;99852.22;;;5.55;100.00
77325;BME280;66387;53.440;10.390;2023-12-20T09:00:23;99848.78;;;5.56;100.00
77325;BME280;66387;53.440;10.390;2023-12-20T09:02:52;99853.94;;;5.56;100.00
77325;BME280;66387;53.440;10.390;2023-12-20T09:05:17;99836.75;;;5.58;100.00
77325;BME280;66387;53.440;10.390;2023-12-20T09:07:42;99830.72;;;5.63;100.00
77325;BME280;66387;53.440;10.390;2023-12-20T09:10:08;99835.84;;;5.69;100.00
77325;BME280;66387;53.440;10.390;2023-12-20T09:12:33;99831.53;;;5.68;100.00
77325;BME280;66387;53.440;10.390;2023-12-20T09:14:58;99840.13;;;5.70;100.00
77325;BME280;66387;53.440;10.390;2023-12-20T09:17:26;99836.69;;;5.70;100.00
77325;BME280;66387;53.440;10.390;2023-12-20T09:19:51;99835.84;;;5.66;100.00
77325;BME280;66387;53.440;10.390;2023-12-20T09:22:19;99842.78;;;5.60;100.00
77325;BME280;66387;53.440;10.390;2023-12-20T09:24:44;99835.91;;;5.56;100.00
77325;BME280;66387;53.440;10.390;2023-12-20T09:27:09;99837.66;;;5.54;100.00
77325;BME280;66387;53.440;10.390;2023-12-20T09:29:35;99824.81;;;5.48;100.00
77325;BME280;66387;53.440;10.390;2023-12-20T09:32:00;99835.09;;;5.48;100.00
77325;BME280;66387;53.440;10.390;2023-12-20T09:34:25;99839.41;;;5.39;100.00
77325;BME280;66387;53.440;10.390;2023-12-20T09:36:52;99859.22;;;5.27;100.00
77325;BME280;66387;53.440;10.390;2023-12-20T09:39:18;99852.38;;;5.24;100.00
77325;BME280;66387;53.440;10.390;2023-12-20T09:41:45;99862.69;;;5.12;100.00
77325;BME280;66387;53.440;10.390;2023-12-20T09:44:17;99857.56;;;5.08;100.00
77325;BME280;66387;53.440;10.390;2023-12-20T09:46:45;99847.31;;;5.06;100.00
77325;BME280;66387;53.440;10.390;2023-12-20T09:49:11;99864.44;;;5.09;100.00
77325;BME280;66387;53.440;10.390;2023-12-20T09:51:37;99857.56;;;5.12;100.00
77325;BME280;66387;53.440;10.390;2023-12-20T09:54:03;99842.13;;;5.12;100.00
77325;BME280;66387;53.440;10.390;2023-12-20T09:56:29;99844.69;;;5.15;100.00
77325;BME280;66387;53.440;10.390;2023-12-20T09:58:54;99843.81;;;5.15;100.00
77325;BME280;66387;53.440;10.390;2023-12-20T10:01:20;99838.66;;;5.19;100.00
77325;BME280;66387;53.440;10.390;2023-12-20T10:03:46;99836.97;;;5.15;100.00
77325;BME280;66387;53.440;10.390;2023-12-20T10:06:11;99846.41;;;5.10;100.00
77325;BME280;66387;53.440;10.390;2023-12-20T10:08:37;99849.84;;;5.08;100.00
77325;BME280;66387;53.440;10.390;2023-12-20T10:11:02;99841.28;;;5.07;100.00
77325;BME280;66387;53.440;10.390;2023-12-20T10:13:29;99843.00;;;5.10;100.00
77325;BME280;66387;53.440;10.390;2023-12-20T10:15:55;99853.28;;;5.08;100.00
77325;BME280;66387;53.440;10.390;2023-12-20T10:18:21;99837.84;;;5.10;100.00
77325;BME280;66387;53.440;10.390;2023-12-20T10:20:46;99847.31;;;5.06;100.00
77325;BME280;66387;53.440;10.390;2023-12-20T10:23:12;99832.69;;;5.08;100.00
77325;BME280;66387;53.440;10.390;2023-12-20T10:25:39;99830.97;;;5.07;100.00
77325;BME280;66387;53.440;10.390;2023-12-20T10:30:35;99812.13;;;5.04;100.00
77325;BME280;66387;53.440;10.390;2023-12-20T10:33:01;99818.16;;;5.06;100.00
77325;BME280;66387;53.440;10.390;2023-12-20T10:35:26;99857.59;;;5.06;100.00
77325;BME280;66387;53.440;10.390;2023-12-20T10:37:55;99874.72;;;5.04;100.00
77325;BME280;66387;53.440;10.390;2023-12-20T10:40:22;99871.31;;;5.02;100.00
77325;BME280;66387;53.440;10.390;2023-12-20T10:42:48;99857.59;;;5.00;100.00
77325;BME280;66387;53.440;10.390;2023-12-20T10:45:15;99857.59;;;4.97;100.00
77325;BME280;66387;53.440;10.390;2023-12-20T10:47:43;99856.75;;;4.95;100.00
77325;BME280;66387;53.440;10.390;2023-12-20T10:50:11;99855.00;;;4.95;100.00
77325;BME280;66387;53.440;10.390;2023-12-20T10:52:37;99835.28;;;4.99;100.00
77325;BME280;66387;53.440;10.390;2023-12-20T10:55:03;99830.13;;;5.04;100.00
77325;BME280;66387;53.440;10.390;2023-12-20T10:57:29;99825.84;;;5.06;100.00
77325;BME280;66387;53.440;10.390;2023-12-20T10:59:55;99834.41;;;5.09;100.00
77325;BME280;66387;53.440;10.390;2023-12-20T11:02:26;99826.66;;;5.18;100.00
77325;BME280;66387;53.440;10.390;2023-12-20T11:05:06;99838.66;;;5.22;100.00
77325;BME280;66387;53.440;10.390;2023-12-20T11:07:48;99827.50;;;5.28;100.00
77325;BME280;66387;53.440;10.390;2023-12-20T11:10:20;99824.06;;;5.23;100.00
77325;BME280;66387;53.440;10.390;2023-12-20T11:12:51;99822.41;;;5.17;100.00
77325;BME280;66387;53.440;10.390;2023-12-20T11:15:18;99819.81;;;5.14;100.00
77325;BME280;66387;53.440;10.390;2023-12-20T11:17:45;99822.38;;;5.16;100.00
77325;BME280;66387;53.440;10.390;2023-12-20T11:20:11;99822.41;;;5.07;100.00
77325;BME280;66387;53.440;10.390;2023-12-20T11:22:37;99831.00;;;5.04;100.00
77325;BME280;66387;53.440;10.390;2023-12-20T11:25:06;99825.88;;;5.03;100.00
77325;BME280;66387;53.440;10.390;2023-12-20T11:27:33;99819.03;;;4.97;100.00
77325;BME280;66387;53.440;10.390;2023-12-20T11:29:59;99818.19;;;4.95;100.00
77325;BME280;66387;53.440;10.390;2023-12-20T11:34:57;99815.56;;;5.00;100.00
77325;BME280;66387;53.440;10.390;2023-12-20T11:37:31;99809.59;;;4.96;100.00
77325;BME280;66387;53.440;10.390;2023-12-20T11:40:07;99821.59;;;4.99;100.00
77325;BME280;66387;53.440;10.390;2023-12-20T11:42:41;99827.59;;;4.98;100.00
77325;BME280;66387;53.440;10.390;2023-12-20T11:45:10;99822.44;;;4.98;100.00
77325;BME280;66387;53.440;10.390;2023-12-20T11:47:36;99814.72;;;5.01;100.00
77325;BME280;66387;53.440;10.390;2023-12-20T11:50:02;99802.72;;;5.06;100.00
77325;BME280;66387;53.440;10.390;2023-12-20T11:52:30;99807.88;;;4.97;100.00
77325;BME280;66387;53.440;10.390;2023-12-20T11:54:55;99819.88;;;4.96;100.00
77325;BME280;66387;53.440;10.390;2023-12-20T11:57:20;99813.03;;;4.98;100.00
77325;BME280;66387;53.440;10.390;2023-12-20T11:59:46;99821.59;;;4.99;100.00
77325;BME280;66387;53.440;10.390;2023-12-20T12:02:11;99826.72;;;4.95;100.00
77325;BME280;66387;53.440;10.390;2023-12-20T12:04:37;99821.56;;;5.03;100.00
77325;BME280;66387;53.440;10.390;2023-12-20T12:07:02;99823.28;;;5.01;100.00
77325;BME280;66387;53.440;10.390;2023-12-20T12:09:28;99816.44;;;5.00;100.00
77325;BME280;66387;53.440;10.390;2023-12-20T12:11:53;99823.31;;;4.98;100.00
77325;BME280;66387;53.440;10.390;2023-12-20T12:14:18;99825.03;;;4.93;100.00
77325;BME280;66387;53.440;10.390;2023-12-20T12:16:45;99821.59;;;5.02;100.00
77325;BME280;66387;53.440;10.390;2023-12-20T12:19:24;99821.59;;;5.02;100.00
77325;BME280;66387;53.440;10.390;2023-12-20T12:21:51;99818.13;;;5.04;100.00
77325;BME280;66387;53.440;10.390;2023-12-20T12:24:20;99825.84;;;5.06;100.00
77325;BME280;66387;53.440;10.390;2023-12-20T12:26:50;99819.03;;;4.94;100.00
77325;BME280;66387;53.440;10.390;2023-12-20T12:29:16;99809.66;;;4.84;100.00
77325;BME280;66387;53.440;10.390;2023-12-20T12:31:41;99822.50;;;4.79;100.00
77325;BME280;66387;53.440;10.390;2023-12-20T12:34:06;99816.50;;;4.80;100.00
77325;BME280;66387;53.440;10.390;2023-12-20T12:36:34;99813.91;;;4.82;100.00
77325;BME280;66387;53.440;10.390;2023-12-20T12:39:02;99812.19;;;4.94;100.00
77325;BME280;66387;53.440;10.390;2023-12-20T12:41:29;99805.28;;;5.06;100.00
77325;BME280;66387;53.440;10.390;2023-12-20T12:43:55;99805.25;;;5.10;100.00